createdAt,value
2019-05-29T00:00:37.901Z,22.63
2019-05-29T00:01:37.886Z,22.60
2019-05-29T00:02:37.877Z,22.55
2019-05-29T00:03:37.870Z,22.57
2019-05-29T00:04:37.858Z,22.60
2019-05-29T00:05:37.846Z,22.59
2019-05-29T00:06:37.834Z,22.59
2019-05-29T00:07:37.823Z,22.60
2019-05-29T00:08:37.818Z,22.68
2019-05-29T00:09:37.808Z,22.60
2019-05-29T00:10:37.791Z,22.59
2019-05-29T00:11:37.777Z,22.55
2019-05-29T00:12:37.767Z,22.57
2019-05-29T00:13:37.757Z,22.57
2019-05-29T00:14:37.752Z,22.60
2019-05-29T00:15:37.733Z,22.59
2019-05-29T00:16:37.726Z,22.53
2019-05-29T00:17:37.718Z,22.62
2019-05-29T00:18:37.704Z,22.57
2019-05-29T00:19:37.690Z,22.57
2019-05-29T00:20:37.698Z,22.47
2019-05-29T00:21:37.671Z,22.60
2019-05-29T00:22:37.662Z,22.47
2019-05-29T00:23:37.647Z,22.53
2019-05-29T00:24:37.640Z,22.57
2019-05-29T00:25:37.628Z,22.59
2019-05-29T00:26:37.631Z,22.63
2019-05-29T00:27:37.604Z,22.59
2019-05-29T00:28:37.604Z,22.55
2019-05-29T00:29:37.586Z,22.57
2019-05-29T00:30:37.575Z,22.55
2019-05-29T00:31:37.570Z,22.57
2019-05-29T00:32:37.826Z,22.57
2019-05-29T00:33:37.541Z,22.53
2019-05-29T00:34:37.534Z,22.55
2019-05-29T00:35:37.542Z,22.57
2019-05-29T00:36:37.519Z,22.62
2019-05-29T00:37:37.502Z,22.45
2019-05-29T00:38:37.488Z,22.55
2019-05-29T00:39:37.478Z,22.47
2019-05-29T00:40:37.466Z,22.48
2019-05-29T00:41:37.455Z,22.57
2019-05-29T00:42:37.448Z,22.57
2019-05-29T00:43:37.441Z,22.55
2019-05-29T00:44:37.424Z,22.60
2019-05-29T00:45:37.413Z,22.48
2019-05-29T00:46:37.406Z,22.53
2019-05-29T00:47:37.393Z,22.53
2019-05-29T00:48:37.382Z,22.50
2019-05-29T00:49:37.374Z,22.55
2019-05-29T00:50:37.366Z,22.55
2019-05-29T00:51:37.350Z,22.45
2019-05-29T00:52:37.345Z,22.50
2019-05-29T00:53:37.330Z,22.47
2019-05-29T00:54:37.318Z,22.51
2019-05-29T00:55:37.308Z,22.47
2019-05-29T00:56:37.300Z,22.51
2019-05-29T00:57:37.289Z,22.50
2019-05-29T00:58:37.293Z,22.45
2019-05-29T00:59:37.266Z,22.48
2019-05-29T01:00:37.260Z,22.50
2019-05-29T01:01:37.253Z,22.51
2019-05-29T01:02:37.240Z,22.54
2019-05-29T01:03:37.226Z,22.53
2019-05-29T01:04:37.217Z,22.44
2019-05-29T01:05:37.203Z,22.47
2019-05-29T01:06:37.195Z,22.48
2019-05-29T01:07:37.181Z,22.55
2019-05-29T01:08:37.171Z,22.43
2019-05-29T01:09:37.162Z,22.44
2019-05-29T01:10:37.151Z,22.48
2019-05-29T01:11:37.138Z,22.44
2019-05-29T01:12:37.128Z,22.51
2019-05-29T01:13:37.121Z,22.51
2019-05-29T01:14:49.227Z,22.50
2019-05-29T01:15:38.093Z,22.44
2019-05-29T01:16:37.088Z,22.45
2019-05-29T01:17:37.074Z,22.45
2019-05-29T01:18:37.065Z,22.43
2019-05-29T01:19:37.057Z,22.43
2019-05-29T01:20:37.045Z,22.44
2019-05-29T01:21:37.049Z,22.45
2019-05-29T01:22:37.028Z,22.48
2019-05-29T01:23:37.013Z,22.48
2019-05-29T01:24:37.008Z,22.53
2019-05-29T01:25:36.990Z,22.50
2019-05-29T01:26:36.991Z,22.51
2019-05-29T01:27:36.991Z,22.50
2019-05-29T01:28:36.964Z,22.45
2019-05-29T01:29:36.947Z,22.47
2019-05-29T01:30:36.938Z,22.51
2019-05-29T01:31:36.929Z,22.47
2019-05-29T01:32:36.926Z,22.51
2019-05-29T01:33:36.914Z,22.44
2019-05-29T01:34:36.903Z,22.45
2019-05-29T01:35:36.886Z,22.47
2019-05-29T01:36:36.877Z,22.43
2019-05-29T01:37:36.869Z,22.43
2019-05-29T01:38:36.863Z,22.48
2019-05-29T01:39:36.845Z,22.44
2019-05-29T01:40:36.836Z,22.48
2019-05-29T01:41:36.821Z,22.44
2019-05-29T01:42:36.835Z,22.43
2019-05-29T01:43:36.800Z,22.35
2019-05-29T01:44:36.804Z,22.53
2019-05-29T01:45:36.779Z,22.35
2019-05-29T01:46:36.773Z,22.44
2019-05-29T01:47:36.767Z,22.48
2019-05-29T01:48:36.758Z,22.47
2019-05-29T01:49:36.736Z,22.45
2019-05-29T01:50:36.731Z,22.36
2019-05-29T01:51:36.716Z,22.35
2019-05-29T01:52:36.712Z,22.39
2019-05-29T01:53:36.694Z,22.39
2019-05-29T01:54:36.685Z,22.39
2019-05-29T01:55:36.674Z,22.39
2019-05-29T01:56:36.666Z,22.43
2019-05-29T01:57:36.652Z,22.38
2019-05-29T01:58:36.645Z,22.45
2019-05-29T01:59:36.633Z,22.33
2019-05-29T02:00:36.621Z,22.41
2019-05-29T02:01:36.610Z,22.44
2019-05-29T02:02:36.602Z,22.38
2019-05-29T02:03:36.606Z,22.38
2019-05-29T02:04:36.580Z,22.35
2019-05-29T02:05:36.567Z,22.41
2019-05-29T02:06:36.557Z,22.38
2019-05-29T02:07:36.553Z,22.33
2019-05-29T02:08:36.537Z,22.38
2019-05-29T02:09:36.526Z,22.32
2019-05-29T02:10:36.518Z,22.36
2019-05-29T02:11:36.513Z,22.41
2019-05-29T02:12:36.494Z,22.35
2019-05-29T02:13:36.485Z,22.39
2019-05-29T02:14:36.474Z,22.39
2019-05-29T02:15:36.463Z,22.41
2019-05-29T02:16:36.449Z,22.41
2019-05-29T02:17:36.441Z,22.38
2019-05-29T02:18:36.434Z,22.38
2019-05-29T02:19:36.418Z,22.43
2019-05-29T02:20:36.422Z,22.41
2019-05-29T02:21:36.400Z,22.41
2019-05-29T02:22:36.391Z,22.44
2019-05-29T02:23:36.379Z,22.43
2019-05-29T02:24:36.369Z,22.38
2019-05-29T02:25:36.359Z,22.44
2019-05-29T02:26:36.344Z,22.39
2019-05-29T02:27:36.335Z,22.44
2019-05-29T02:28:36.328Z,22.41
2019-05-29T02:29:36.312Z,22.36
2019-05-29T02:30:36.306Z,22.39
2019-05-29T02:31:36.295Z,22.45
2019-05-29T02:32:36.326Z,22.45
2019-05-29T02:33:36.272Z,22.47
2019-05-29T02:34:36.271Z,22.35
2019-05-29T02:35:36.250Z,22.45
2019-05-29T02:36:36.241Z,22.36
2019-05-29T02:37:36.262Z,22.43
2019-05-29T02:38:36.218Z,22.35
2019-05-29T02:39:36.209Z,22.41
2019-05-29T02:40:36.212Z,22.33
2019-05-29T02:41:36.188Z,22.38
2019-05-29T02:42:36.188Z,22.36
2019-05-29T02:43:36.167Z,22.36
2019-05-29T02:44:36.157Z,22.38
2019-05-29T02:45:53.017Z,22.33
2019-05-29T02:46:37.130Z,22.33
2019-05-29T02:47:36.126Z,22.30
2019-05-29T02:48:36.123Z,22.33
2019-05-29T02:49:36.102Z,22.39
2019-05-29T02:50:36.098Z,22.30
2019-05-29T02:51:36.080Z,22.36
2019-05-29T02:52:36.073Z,22.39
2019-05-29T02:53:36.059Z,22.41
2019-05-29T02:54:36.049Z,22.41
2019-05-29T02:55:36.040Z,22.30
2019-05-29T02:56:36.038Z,22.39
2019-05-29T02:57:36.018Z,22.33
2019-05-29T02:58:36.011Z,22.32
2019-05-29T02:59:35.997Z,22.36
2019-05-29T03:00:35.987Z,22.36
2019-05-29T03:01:35.975Z,22.33
2019-05-29T03:02:35.979Z,22.29
2019-05-29T03:03:39.749Z,22.39
2019-05-29T03:04:35.946Z,22.25
2019-05-29T03:05:35.932Z,22.30
2019-05-29T03:06:35.923Z,22.36
2019-05-29T03:07:35.931Z,22.35
2019-05-29T03:08:35.901Z,22.39
2019-05-29T03:09:35.890Z,22.30
2019-05-29T03:10:35.882Z,22.29
2019-05-29T03:11:35.869Z,22.30
2019-05-29T03:12:35.857Z,22.29
2019-05-29T03:13:35.850Z,22.32
2019-05-29T03:14:35.850Z,22.35
2019-05-29T03:15:35.992Z,22.29
2019-05-29T03:16:35.818Z,22.25
2019-05-29T03:17:35.821Z,22.32
2019-05-29T03:18:35.796Z,22.29
2019-05-29T03:19:35.798Z,22.30
2019-05-29T03:20:35.772Z,22.28
2019-05-29T03:21:35.762Z,22.30
2019-05-29T03:22:35.750Z,22.32
2019-05-29T03:23:36.515Z,22.29
2019-05-29T03:24:35.726Z,22.26
2019-05-29T03:25:37.064Z,22.28
2019-05-29T03:26:35.736Z,22.35
2019-05-29T03:27:35.695Z,22.29
2019-05-29T03:28:35.709Z,22.29
2019-05-29T03:29:35.671Z,22.32
2019-05-29T03:30:44.771Z,22.29
2019-05-29T03:31:43.453Z,22.30
2019-05-29T03:32:45.537Z,22.28
2019-05-29T03:33:45.323Z,22.30
2019-05-29T03:34:42.078Z,22.29
2019-05-29T03:35:43.453Z,22.28
2019-05-29T03:36:43.513Z,22.30
2019-05-29T03:37:36.587Z,22.28
2019-05-29T03:38:35.579Z,22.30
2019-05-29T03:39:35.567Z,22.29
2019-05-29T03:40:35.558Z,22.30
2019-05-29T03:41:35.545Z,22.28
2019-05-29T03:42:35.545Z,22.29
2019-05-29T03:43:36.197Z,22.30
2019-05-29T03:44:35.625Z,22.28
2019-05-29T03:45:36.263Z,22.28
2019-05-29T03:46:43.055Z,22.29
2019-05-29T03:47:37.170Z,22.26
2019-05-29T03:48:35.477Z,22.23
2019-05-29T03:49:37.287Z,22.35
2019-05-29T03:50:35.453Z,22.28
2019-05-29T03:51:37.184Z,22.22
2019-05-29T03:52:35.431Z,22.29
2019-05-29T03:53:36.716Z,22.23
2019-05-29T03:54:35.596Z,22.22
2019-05-29T03:55:35.954Z,22.20
2019-05-29T03:56:35.391Z,22.23
2019-05-29T03:57:35.827Z,22.30
2019-05-29T03:58:37.502Z,22.18
2019-05-29T03:59:37.344Z,22.23
2019-05-29T04:00:41.735Z,22.28
2019-05-29T04:01:37.435Z,22.20
2019-05-29T04:02:36.153Z,22.35
2019-05-29T04:03:36.003Z,22.30
2019-05-29T04:04:36.174Z,22.23
2019-05-29T04:05:35.693Z,22.20
2019-05-29T04:06:35.687Z,22.23
2019-05-29T04:07:35.693Z,22.22
2019-05-29T04:08:35.838Z,22.17
2019-05-29T04:09:35.516Z,22.29
2019-05-29T04:10:37.483Z,22.20
2019-05-29T04:11:35.626Z,22.15
2019-05-29T04:12:35.547Z,22.25
2019-05-29T04:13:36.254Z,22.25
2019-05-29T04:14:35.753Z,22.22
2019-05-29T04:15:36.526Z,22.23
2019-05-29T04:16:52.717Z,22.22
2019-05-29T04:17:37.737Z,22.23
2019-05-29T04:18:35.954Z,22.28
2019-05-29T04:19:36.883Z,22.23
2019-05-29T04:20:36.080Z,22.23
2019-05-29T04:21:36.341Z,22.22
2019-05-29T04:22:36.926Z,22.22
2019-05-29T04:23:36.204Z,22.22
2019-05-29T04:24:36.000Z,22.25
2019-05-29T04:25:39.338Z,22.32
2019-05-29T04:26:36.259Z,22.25
2019-05-29T04:27:35.974Z,22.20
2019-05-29T04:28:36.769Z,22.22
2019-05-29T04:29:36.103Z,22.23
2019-05-29T04:30:36.518Z,22.22
2019-05-29T04:31:36.546Z,22.22
2019-05-29T04:32:36.623Z,22.17
2019-05-29T04:33:36.652Z,22.23
2019-05-29T04:34:35.869Z,22.17
2019-05-29T04:35:36.650Z,22.26
2019-05-29T04:36:36.712Z,22.22
2019-05-29T04:37:36.789Z,22.32
2019-05-29T04:38:36.138Z,22.22
2019-05-29T04:39:36.831Z,22.30
2019-05-29T04:40:35.670Z,22.22
2019-05-29T04:41:34.913Z,22.23
2019-05-29T04:42:35.788Z,22.22
2019-05-29T04:43:35.459Z,22.29
2019-05-29T04:44:36.296Z,22.22
2019-05-29T04:45:37.362Z,22.29
2019-05-29T04:46:36.496Z,22.25
2019-05-29T04:47:35.204Z,22.17
2019-05-29T04:48:36.189Z,22.33
2019-05-29T04:49:36.161Z,22.38
2019-05-29T04:50:37.640Z,22.35
2019-05-29T04:51:35.408Z,22.30
2019-05-29T04:52:35.914Z,22.36
2019-05-29T04:53:35.525Z,22.29
2019-05-29T04:54:35.397Z,22.36
2019-05-29T04:55:34.888Z,22.35
2019-05-29T04:56:34.932Z,22.26
2019-05-29T04:57:35.011Z,22.29
2019-05-29T04:58:34.887Z,22.30
2019-05-29T04:59:34.981Z,22.26
2019-05-29T05:00:35.189Z,22.28
2019-05-29T05:01:35.078Z,22.28
2019-05-29T05:02:35.059Z,22.32
2019-05-29T05:03:35.174Z,22.32
2019-05-29T05:04:35.203Z,22.35
2019-05-29T05:05:35.316Z,22.28
2019-05-29T05:06:35.312Z,22.33
2019-05-29T05:07:35.367Z,22.39
2019-05-29T05:08:35.418Z,22.30
2019-05-29T05:09:35.431Z,22.32
2019-05-29T05:10:35.630Z,22.43
2019-05-29T05:11:35.450Z,22.36
2019-05-29T05:12:35.702Z,22.32
2019-05-29T05:13:35.569Z,22.36
2019-05-29T05:14:35.459Z,22.33
2019-05-29T05:15:35.526Z,22.35
2019-05-29T05:16:35.731Z,22.33
2019-05-29T05:17:35.917Z,22.44
2019-05-29T05:18:34.521Z,22.35
2019-05-29T05:19:34.511Z,22.44
2019-05-29T05:20:34.517Z,22.36
2019-05-29T05:21:34.489Z,22.35
2019-05-29T05:22:34.478Z,22.47
2019-05-29T05:23:34.469Z,22.41
2019-05-29T05:24:34.460Z,22.33
2019-05-29T05:25:34.446Z,22.41
2019-05-29T05:26:34.436Z,22.39
2019-05-29T05:27:34.426Z,22.36
2019-05-29T05:28:34.415Z,22.38
2019-05-29T05:29:34.423Z,22.35
2019-05-29T05:30:34.507Z,22.39
2019-05-29T05:31:34.950Z,22.43
2019-05-29T05:32:34.872Z,22.47
2019-05-29T05:33:34.530Z,22.47
2019-05-29T05:34:34.704Z,22.48
2019-05-29T05:35:34.697Z,22.36
2019-05-29T05:36:34.682Z,22.33
2019-05-29T05:37:34.715Z,22.38
2019-05-29T05:38:34.701Z,22.35
2019-05-29T05:39:35.176Z,22.50
2019-05-29T05:40:37.135Z,22.39
2019-05-29T05:41:35.275Z,22.45
2019-05-29T05:42:34.869Z,22.43
2019-05-29T05:43:34.858Z,22.41
2019-05-29T05:44:34.931Z,22.47
2019-05-29T05:45:35.106Z,22.47
2019-05-29T05:46:34.970Z,22.51
2019-05-29T05:47:45.086Z,22.43
2019-05-29T05:48:35.202Z,22.51
2019-05-29T05:49:35.370Z,22.44
2019-05-29T05:50:35.095Z,22.47
2019-05-29T05:51:38.121Z,22.47
2019-05-29T05:52:35.309Z,22.48
2019-05-29T05:53:35.308Z,22.47
2019-05-29T05:54:35.300Z,22.51
2019-05-29T05:55:35.440Z,22.54
2019-05-29T05:56:34.116Z,22.48
2019-05-29T05:57:34.109Z,22.54
2019-05-29T05:58:34.100Z,22.50
2019-05-29T05:59:34.083Z,22.50
2019-05-29T06:00:34.146Z,22.57
2019-05-29T06:01:34.061Z,22.51
2019-05-29T06:02:34.056Z,22.60
2019-05-29T06:03:34.076Z,22.48
2019-05-29T06:04:34.227Z,22.53
2019-05-29T06:05:34.047Z,22.60
2019-05-29T06:06:34.009Z,22.57
2019-05-29T06:07:34.151Z,22.59
2019-05-29T06:08:34.091Z,22.57
2019-05-29T06:09:34.190Z,22.70
2019-05-29T06:10:34.141Z,22.57
2019-05-29T06:11:34.216Z,22.57
2019-05-29T06:12:34.411Z,22.57
2019-05-29T06:13:34.165Z,22.73
2019-05-29T06:14:34.342Z,22.59
2019-05-29T06:15:34.309Z,22.65
2019-05-29T06:16:34.435Z,22.69
2019-05-29T06:17:34.424Z,22.69
2019-05-29T06:18:34.448Z,22.63
2019-05-29T06:19:34.983Z,22.59
2019-05-29T06:20:34.704Z,22.65
2019-05-29T06:21:34.643Z,22.65
2019-05-29T06:22:34.895Z,22.73
2019-05-29T06:23:34.779Z,22.70
2019-05-29T06:24:35.012Z,22.70
2019-05-29T06:25:36.289Z,22.76
2019-05-29T06:26:34.763Z,22.70
2019-05-29T06:27:35.058Z,22.78
2019-05-29T06:28:34.955Z,22.81
2019-05-29T06:29:35.130Z,22.80
2019-05-29T06:30:34.474Z,22.87
2019-05-29T06:31:33.760Z,22.81
2019-05-29T06:32:33.732Z,22.84
2019-05-29T06:33:33.718Z,22.83
2019-05-29T06:34:33.706Z,22.84
2019-05-29T06:35:34.187Z,22.87
2019-05-29T06:36:33.685Z,22.85
2019-05-29T06:37:33.700Z,22.88
2019-05-29T06:38:33.706Z,22.90
2019-05-29T06:39:33.659Z,22.88
2019-05-29T06:40:34.042Z,22.88
2019-05-29T06:41:33.680Z,22.94
2019-05-29T06:42:33.636Z,22.90
2019-05-29T06:43:33.825Z,22.88
2019-05-29T06:44:34.294Z,22.85
2019-05-29T06:45:33.782Z,22.91
2019-05-29T06:46:34.359Z,23.00
2019-05-29T06:47:34.238Z,22.88
2019-05-29T06:48:52.081Z,22.98
2019-05-29T06:49:34.554Z,22.91
2019-05-29T06:50:33.540Z,22.90
2019-05-29T06:51:33.523Z,22.98
2019-05-29T06:52:33.511Z,22.91
2019-05-29T06:53:33.504Z,22.91
2019-05-29T06:54:33.503Z,22.90
2019-05-29T06:55:33.484Z,22.94
2019-05-29T06:56:33.470Z,22.91
2019-05-29T06:57:33.471Z,23.02
2019-05-29T06:58:33.447Z,23.02
2019-05-29T06:59:33.439Z,22.96
2019-05-29T07:00:35.699Z,23.02
2019-05-29T07:01:33.449Z,22.98
2019-05-29T07:02:33.412Z,22.96
2019-05-29T07:03:33.398Z,22.98
2019-05-29T07:04:33.383Z,23.05
2019-05-29T07:05:33.375Z,22.98
2019-05-29T07:06:33.393Z,22.99
2019-05-29T07:07:33.351Z,22.98
2019-05-29T07:08:38.686Z,22.94
2019-05-29T07:09:34.352Z,22.98
2019-05-29T07:10:33.328Z,23.00
2019-05-29T07:11:33.309Z,23.02
2019-05-29T07:12:33.297Z,22.98
2019-05-29T07:13:35.167Z,22.99
2019-05-29T07:14:33.278Z,22.98
2019-05-29T07:15:33.266Z,23.00
2019-05-29T07:16:43.706Z,22.96
2019-05-29T07:17:34.245Z,22.98
2019-05-29T07:18:33.251Z,23.02
2019-05-29T07:19:47.551Z,23.02
2019-05-29T07:20:34.210Z,23.08
2019-05-29T07:21:33.204Z,23.02
2019-05-29T07:22:33.197Z,23.10
2019-05-29T07:23:33.185Z,23.03
2019-05-29T07:24:33.187Z,23.03
2019-05-29T07:25:33.178Z,23.06
2019-05-29T07:26:33.145Z,23.09
2019-05-29T07:27:33.134Z,23.00
2019-05-29T07:28:33.121Z,23.02
2019-05-29T07:29:33.116Z,23.05
2019-05-29T07:30:33.107Z,23.05
2019-05-29T07:31:33.089Z,23.05
2019-05-29T07:32:33.086Z,23.02
2019-05-29T07:33:33.092Z,23.06
2019-05-29T07:34:49.639Z,23.06
2019-05-29T07:35:34.045Z,23.12
2019-05-29T07:36:33.035Z,23.09
2019-05-29T07:37:33.121Z,23.15
2019-05-29T07:38:33.022Z,23.12
2019-05-29T07:39:33.003Z,23.13
2019-05-29T07:40:35.733Z,23.06
2019-05-29T07:41:32.988Z,23.06
2019-05-29T07:42:32.977Z,23.08
2019-05-29T07:43:32.961Z,23.08
2019-05-29T07:44:32.954Z,23.08
2019-05-29T07:45:32.954Z,23.08
2019-05-29T07:46:32.940Z,23.06
2019-05-29T07:47:32.942Z,23.05
2019-05-29T07:48:32.914Z,23.08
2019-05-29T07:49:39.238Z,23.10
2019-05-29T07:50:33.888Z,23.13
2019-05-29T07:51:33.171Z,23.18
2019-05-29T07:52:32.883Z,23.18
2019-05-29T07:53:33.780Z,23.15
2019-05-29T07:54:32.848Z,23.21
2019-05-29T07:55:32.840Z,23.10
2019-05-29T07:56:32.823Z,23.15
2019-05-29T07:57:32.869Z,23.21
2019-05-29T07:58:32.813Z,23.15
2019-05-29T07:59:32.787Z,23.13
2019-05-29T08:00:35.752Z,23.25
2019-05-29T08:01:33.769Z,23.15
2019-05-29T08:02:32.759Z,23.21
2019-05-29T08:03:32.749Z,23.10
2019-05-29T08:04:32.735Z,23.23
2019-05-29T08:05:32.726Z,23.21
2019-05-29T08:06:32.714Z,23.23
2019-05-29T08:07:32.708Z,23.15
2019-05-29T08:08:32.694Z,23.12
2019-05-29T08:09:32.685Z,23.18
2019-05-29T08:10:32.692Z,23.13
2019-05-29T08:11:32.666Z,23.23
2019-05-29T08:12:32.653Z,23.27
2019-05-29T08:13:32.646Z,23.13
2019-05-29T08:14:32.652Z,23.23
2019-05-29T08:15:32.614Z,23.21
2019-05-29T08:16:32.604Z,23.15
2019-05-29T08:17:32.594Z,23.15
2019-05-29T08:18:32.584Z,23.31
2019-05-29T08:19:32.572Z,23.34
2019-05-29T08:20:32.563Z,23.37
2019-05-29T08:21:32.550Z,23.20
2019-05-29T08:22:34.575Z,23.34
2019-05-29T08:23:32.541Z,23.28
2019-05-29T08:24:32.517Z,23.34
2019-05-29T08:25:32.505Z,23.32
2019-05-29T08:26:32.495Z,23.28
2019-05-29T08:27:32.483Z,23.28
2019-05-29T08:28:32.473Z,23.34
2019-05-29T08:29:32.461Z,23.32
2019-05-29T08:30:32.455Z,23.36
2019-05-29T08:31:32.447Z,23.36
2019-05-29T08:32:32.439Z,23.40
2019-05-29T08:33:32.442Z,23.36
2019-05-29T08:34:32.409Z,23.34
2019-05-29T08:35:32.402Z,23.36
2019-05-29T08:36:32.427Z,23.36
2019-05-29T08:37:32.380Z,23.40
2019-05-29T08:38:32.384Z,23.40
2019-05-29T08:39:36.480Z,23.41
2019-05-29T08:40:32.345Z,23.36
2019-05-29T08:41:32.332Z,23.39
2019-05-29T08:42:32.322Z,23.36
2019-05-29T08:43:32.312Z,23.37
2019-05-29T08:44:32.299Z,23.34
2019-05-29T08:45:32.289Z,23.37
2019-05-29T08:46:33.430Z,23.40
2019-05-29T08:47:32.275Z,23.46
2019-05-29T08:48:32.257Z,23.43
2019-05-29T08:49:32.245Z,23.44
2019-05-29T08:50:32.232Z,23.43
2019-05-29T08:51:32.221Z,23.40
2019-05-29T08:52:32.214Z,23.40
2019-05-29T08:53:32.202Z,23.40
2019-05-29T08:54:32.192Z,23.34
2019-05-29T08:55:32.181Z,23.39
2019-05-29T08:56:32.192Z,23.41
2019-05-29T08:57:32.159Z,23.47
2019-05-29T08:58:32.150Z,23.43
2019-05-29T08:59:32.136Z,23.41
2019-05-29T09:00:32.131Z,23.41
2019-05-29T09:01:32.117Z,23.50
2019-05-29T09:02:32.102Z,23.44
2019-05-29T09:03:32.095Z,23.41
2019-05-29T09:04:32.085Z,23.48
2019-05-29T09:05:32.069Z,23.43
2019-05-29T09:06:32.060Z,23.47
2019-05-29T09:07:32.050Z,23.32
2019-05-29T09:08:32.040Z,23.41
2019-05-29T09:09:32.030Z,23.41
2019-05-29T09:10:32.020Z,23.40
2019-05-29T09:11:32.010Z,23.40
2019-05-29T09:12:31.994Z,23.40
2019-05-29T09:13:31.983Z,23.46
2019-05-29T09:14:31.972Z,23.47
2019-05-29T09:15:31.967Z,23.41
2019-05-29T09:16:31.956Z,23.41
2019-05-29T09:17:34.451Z,23.41
2019-05-29T09:18:31.929Z,23.36
2019-05-29T09:19:31.916Z,23.40
2019-05-29T09:20:57.401Z,23.43
2019-05-29T09:21:32.895Z,23.43
2019-05-29T09:22:31.887Z,23.43
2019-05-29T09:23:31.876Z,23.44
2019-05-29T09:24:31.867Z,23.47
2019-05-29T09:25:31.856Z,23.43
2019-05-29T09:26:31.841Z,23.40
2019-05-29T09:27:31.831Z,23.37
2019-05-29T09:28:31.818Z,23.34
2019-05-29T09:29:31.813Z,23.41
2019-05-29T09:30:31.797Z,23.31
2019-05-29T09:31:31.788Z,23.37
2019-05-29T09:32:48.495Z,23.37
2019-05-29T09:33:32.762Z,23.47
2019-05-29T09:34:31.753Z,23.39
2019-05-29T09:35:31.754Z,23.34
2019-05-29T09:36:31.735Z,23.41
2019-05-29T09:37:31.720Z,23.37
2019-05-29T09:38:31.710Z,23.37
2019-05-29T09:39:31.709Z,23.40
2019-05-29T09:40:31.688Z,23.43
2019-05-29T09:41:31.679Z,23.25
2019-05-29T09:42:31.668Z,23.36
2019-05-29T09:43:31.654Z,23.37
2019-05-29T09:44:38.768Z,23.34
2019-05-29T09:45:32.634Z,23.37
2019-05-29T09:46:31.631Z,23.34
2019-05-29T09:47:31.616Z,23.37
2019-05-29T09:48:31.600Z,23.40
2019-05-29T09:49:31.588Z,23.36
2019-05-29T09:50:48.800Z,23.37
2019-05-29T09:51:32.574Z,23.39
2019-05-29T09:52:31.573Z,23.37
2019-05-29T09:53:31.546Z,23.36
2019-05-29T09:54:31.728Z,23.41
2019-05-29T09:55:31.531Z,23.32
2019-05-29T09:56:31.515Z,23.37
2019-05-29T09:57:31.504Z,23.27
2019-05-29T09:58:31.497Z,23.34
2019-05-29T09:59:31.485Z,23.32
2019-05-29T10:00:31.467Z,23.31
2019-05-29T10:01:31.457Z,23.27
2019-05-29T10:02:31.446Z,23.31
2019-05-29T10:03:31.444Z,23.31
2019-05-29T10:04:31.429Z,23.32
2019-05-29T10:05:31.416Z,23.32
2019-05-29T10:06:31.402Z,23.27
2019-05-29T10:07:31.507Z,23.28
2019-05-29T10:08:31.383Z,23.36
2019-05-29T10:09:31.378Z,23.31
2019-05-29T10:10:31.365Z,23.31
2019-05-29T10:11:31.350Z,23.31
2019-05-29T10:12:31.348Z,23.27
2019-05-29T10:13:31.330Z,23.28
2019-05-29T10:14:31.314Z,23.31
2019-05-29T10:15:31.307Z,23.27
2019-05-29T10:16:31.291Z,23.28
2019-05-29T10:17:31.281Z,23.32
2019-05-29T10:18:32.879Z,23.31
2019-05-29T10:19:31.260Z,23.37
2019-05-29T10:20:31.248Z,23.25
2019-05-29T10:21:40.210Z,23.37
2019-05-29T10:22:32.226Z,23.34
2019-05-29T10:23:31.217Z,23.32
2019-05-29T10:24:32.493Z,23.34
2019-05-29T10:25:31.194Z,23.34
2019-05-29T10:26:31.184Z,23.37
2019-05-29T10:27:31.172Z,23.34
2019-05-29T10:28:49.322Z,23.34
2019-05-29T10:29:32.150Z,23.36
2019-05-29T10:30:31.144Z,23.37
2019-05-29T10:31:31.127Z,23.32
2019-05-29T10:32:31.119Z,23.31
2019-05-29T10:33:31.117Z,23.34
2019-05-29T10:34:31.097Z,23.25
2019-05-29T10:35:31.084Z,23.32
2019-05-29T10:36:31.072Z,23.28
2019-05-29T10:37:31.065Z,23.28
2019-05-29T10:38:31.061Z,23.36
2019-05-29T10:39:31.044Z,23.28
2019-05-29T10:40:31.259Z,23.32
2019-05-29T10:41:31.018Z,23.28
2019-05-29T10:42:31.008Z,23.37
2019-05-29T10:43:34.553Z,23.28
2019-05-29T10:44:30.989Z,23.28
2019-05-29T10:45:30.976Z,23.28
2019-05-29T10:46:30.964Z,23.23
2019-05-29T10:47:30.951Z,23.25
2019-05-29T10:48:31.715Z,23.31
2019-05-29T10:49:31.230Z,23.32
2019-05-29T10:50:31.125Z,23.36
2019-05-29T10:51:31.384Z,23.37
2019-05-29T10:52:31.541Z,23.37
2019-05-29T10:53:31.035Z,23.32
2019-05-29T10:54:31.376Z,23.46
2019-05-29T10:55:30.884Z,23.36
2019-05-29T10:56:30.935Z,23.44
2019-05-29T10:57:30.935Z,23.44
2019-05-29T10:58:47.654Z,23.34
2019-05-29T10:59:32.231Z,23.40
2019-05-29T11:00:31.029Z,23.39
2019-05-29T11:01:31.204Z,23.43
2019-05-29T11:02:31.034Z,23.47
2019-05-29T11:03:30.879Z,23.50
2019-05-29T11:04:31.583Z,23.58
2019-05-29T11:05:31.602Z,23.55
2019-05-29T11:06:30.783Z,23.48
2019-05-29T11:07:30.767Z,23.55
2019-05-29T11:08:30.729Z,23.56
2019-05-29T11:09:43.416Z,23.63
2019-05-29T11:10:31.836Z,23.55
2019-05-29T11:11:30.697Z,23.58
2019-05-29T11:12:31.052Z,23.65
2019-05-29T11:13:31.026Z,23.63
2019-05-29T11:14:30.664Z,23.65
2019-05-29T11:15:31.087Z,23.69
2019-05-29T11:16:30.646Z,23.69
2019-05-29T11:17:31.215Z,23.73
2019-05-29T11:18:30.894Z,23.69
2019-05-29T11:19:30.608Z,23.68
2019-05-29T11:20:30.597Z,23.73
2019-05-29T11:21:30.875Z,23.69
2019-05-29T11:22:30.573Z,23.76
2019-05-29T11:23:30.565Z,23.69
2019-05-29T11:24:30.551Z,23.73
2019-05-29T11:25:30.540Z,23.69
2019-05-29T11:26:30.574Z,23.81
2019-05-29T11:27:30.525Z,23.80
2019-05-29T11:28:30.511Z,23.76
2019-05-29T11:29:30.508Z,23.78
2019-05-29T11:30:30.491Z,23.83
2019-05-29T11:31:30.505Z,23.81
2019-05-29T11:32:30.468Z,23.81
2019-05-29T11:33:30.459Z,23.74
2019-05-29T11:34:30.452Z,23.78
2019-05-29T11:35:30.434Z,23.83
2019-05-29T11:36:30.422Z,23.84
2019-05-29T11:37:30.412Z,23.95
2019-05-29T11:38:30.417Z,23.87
2019-05-29T11:39:30.450Z,23.88
2019-05-29T11:40:30.790Z,23.96
2019-05-29T11:41:30.371Z,23.95
2019-05-29T11:42:30.406Z,23.92
2019-05-29T11:43:30.350Z,24.08
2019-05-29T11:44:30.346Z,23.98
2019-05-29T11:45:30.426Z,24.02
2019-05-29T11:46:30.332Z,24.10
2019-05-29T11:47:30.320Z,24.13
2019-05-29T11:48:30.299Z,24.14
2019-05-29T11:49:30.289Z,24.11
2019-05-29T11:50:30.273Z,24.18
2019-05-29T11:51:30.265Z,24.20
2019-05-29T11:52:42.302Z,24.28
2019-05-29T11:53:31.241Z,24.21
2019-05-29T11:54:30.236Z,24.20
2019-05-29T11:55:30.432Z,24.21
2019-05-29T11:56:30.210Z,24.24
2019-05-29T11:57:30.231Z,24.20
2019-05-29T11:58:31.710Z,24.32
2019-05-29T11:59:30.183Z,24.23
2019-05-29T12:00:30.167Z,24.26
2019-05-29T12:01:48.629Z,24.24
2019-05-29T12:02:31.146Z,24.29
2019-05-29T12:03:30.139Z,24.26
2019-05-29T12:04:30.131Z,24.26
2019-05-29T12:05:30.116Z,24.21
2019-05-29T12:06:30.104Z,24.20
2019-05-29T12:07:30.147Z,24.28
2019-05-29T12:08:30.084Z,24.35
2019-05-29T12:09:33.323Z,24.29
2019-05-29T12:10:30.064Z,24.36
2019-05-29T12:11:30.052Z,24.38
2019-05-29T12:12:30.053Z,24.30
2019-05-29T12:13:30.037Z,24.30
2019-05-29T12:14:30.026Z,24.29
2019-05-29T12:15:30.010Z,24.43
2019-05-29T12:16:30.007Z,24.38
2019-05-29T12:17:29.996Z,24.33
2019-05-29T12:18:29.975Z,24.35
2019-05-29T12:19:29.971Z,24.43
2019-05-29T12:20:29.963Z,24.47
2019-05-29T12:21:29.947Z,24.43
2019-05-29T12:22:29.939Z,24.43
2019-05-29T12:23:29.922Z,24.47
2019-05-29T12:24:29.917Z,24.43
2019-05-29T12:25:29.917Z,24.45
2019-05-29T12:26:29.897Z,24.43
2019-05-29T12:27:29.881Z,24.43
2019-05-29T12:28:29.963Z,24.47
2019-05-29T12:29:29.857Z,24.50
2019-05-29T12:30:29.847Z,24.48
2019-05-29T12:31:29.836Z,24.48
2019-05-29T12:32:29.834Z,24.51
2019-05-29T12:33:29.818Z,24.54
2019-05-29T12:34:29.804Z,24.50
2019-05-29T12:35:29.806Z,24.47
2019-05-29T12:36:29.784Z,24.55
2019-05-29T12:37:29.778Z,24.53
2019-05-29T12:38:29.765Z,24.55
2019-05-29T12:39:29.751Z,24.61
2019-05-29T12:40:29.740Z,24.61
2019-05-29T12:41:29.732Z,24.69
2019-05-29T12:42:29.821Z,24.61
2019-05-29T12:43:29.732Z,24.69
2019-05-29T12:44:29.708Z,24.60
2019-05-29T12:45:29.692Z,24.63
2019-05-29T12:46:29.675Z,24.66
2019-05-29T12:47:29.667Z,24.69
2019-05-29T12:48:29.658Z,24.68
2019-05-29T12:49:29.644Z,24.70
2019-05-29T12:50:34.212Z,24.63
2019-05-29T12:51:30.697Z,24.66
2019-05-29T12:52:29.609Z,24.61